sensor_id;sensor_type;location;lat;lon;timestamp;pressure;altitude;pressure_sealevel;temperature
21336;BMP180;10826;52.536;13.432;2022-08-21T00:00:13;101010.00;;;25.90
21336;BMP180;10826;52.536;13.432;2022-08-21T00:02:52;101023.00;;;25.90
21336;BMP180;10826;52.536;13.432;2022-08-21T00:05:19;101021.00;;;25.90
21336;BMP180;10826;52.536;13.432;2022-08-21T00:07:45;101005.00;;;25.80
21336;BMP180;10826;52.536;13.432;2022-08-21T00:10:12;101018.00;;;25.80
21336;BMP180;10826;52.536;13.432;2022-08-21T00:12:40;101000.00;;;25.70
21336;BMP180;10826;52.536;13.432;2022-08-21T00:15:10;101012.00;;;25.80
21336;BMP180;10826;52.536;13.432;2022-08-21T00:17:36;101005.00;;;25.80
21336;BMP180;10826;52.536;13.432;2022-08-21T00:20:07;101007.00;;;25.80
21336;BMP180;10826;52.536;13.432;2022-08-21T00:22:35;101001.00;;;25.70
21336;BMP180;10826;52.536;13.432;2022-08-21T00:25:03;100996.00;;;25.70
21336;BMP180;10826;52.536;13.432;2022-08-21T00:27:29;100996.00;;;25.70
21336;BMP180;10826;52.536;13.432;2022-08-21T00:29:55;101003.00;;;25.70
21336;BMP180;10826;52.536;13.432;2022-08-21T00:32:24;101002.00;;;25.60
21336;BMP180;10826;52.536;13.432;2022-08-21T00:34:51;100992.00;;;25.60
21336;BMP180;10826;52.536;13.432;2022-08-21T00:37:17;101006.00;;;25.50
21336;BMP180;10826;52.536;13.432;2022-08-21T00:39:44;101016.00;;;25.50
21336;BMP180;10826;52.536;13.432;2022-08-21T00:42:11;101003.00;;;25.50
21336;BMP180;10826;52.536;13.432;2022-08-21T00:44:43;101019.00;;;25.40
21336;BMP180;10826;52.536;13.432;2022-08-21T00:47:11;101017.00;;;25.30
21336;BMP180;10826;52.536;13.432;2022-08-21T00:49:39;101009.00;;;25.40
21336;BMP180;10826;52.536;13.432;2022-08-21T00:52:11;101016.00;;;25.40
21336;BMP180;10826;52.536;13.432;2022-08-21T00:54:41;100999.00;;;25.30
21336;BMP180;10826;52.536;13.432;2022-08-21T00:57:21;101005.00;;;25.30
21336;BMP180;10826;52.536;13.432;2022-08-21T00:59:54;100998.00;;;25.30
21336;BMP180;10826;52.536;13.432;2022-08-21T01:02:21;101003.00;;;25.30
21336;BMP180;10826;52.536;13.432;2022-08-21T01:04:48;101012.00;;;25.20
21336;BMP180;10826;52.536;13.432;2022-08-21T01:07:15;101015.00;;;25.20
21336;BMP180;10826;52.536;13.432;2022-08-21T01:09:43;101017.00;;;25.30
21336;BMP180;10826;52.536;13.432;2022-08-21T01:12:10;101012.00;;;25.30
21336;BMP180;10826;52.536;13.432;2022-08-21T01:14:37;101008.00;;;25.30
21336;BMP180;10826;52.536;13.432;2022-08-21T01:17:05;101017.00;;;25.30
21336;BMP180;10826;52.536;13.432;2022-08-21T01:19:32;101000.00;;;25.30
21336;BMP180;10826;52.536;13.432;2022-08-21T01:21:58;101004.00;;;25.30
21336;BMP180;10826;52.536;13.432;2022-08-21T01:24:25;101008.00;;;25.20
21336;BMP180;10826;52.536;13.432;2022-08-21T01:26:52;100984.00;;;25.20
21336;BMP180;10826;52.536;13.432;2022-08-21T01:29:46;101017.00;;;25.20
21336;BMP180;10826;52.536;13.432;2022-08-21T01:32:18;100985.00;;;25.20
21336;BMP180;10826;52.536;13.432;2022-08-21T01:34:48;101001.00;;;25.10
21336;BMP180;10826;52.536;13.432;2022-08-21T01:37:16;101009.00;;;25.10
21336;BMP180;10826;52.536;13.432;2022-08-21T01:39:43;101002.00;;;25.10
21336;BMP180;10826;52.536;13.432;2022-08-21T01:42:10;101024.00;;;25.10
21336;BMP180;10826;52.536;13.432;2022-08-21T01:44:38;101005.00;;;25.10
21336;BMP180;10826;52.536;13.432;2022-08-21T01:47:08;101011.00;;;25.10
21336;BMP180;10826;52.536;13.432;2022-08-21T01:49:36;100998.00;;;25.00
21336;BMP180;10826;52.536;13.432;2022-08-21T01:52:04;101018.00;;;25.00
21336;BMP180;10826;52.536;13.432;2022-08-21T01:54:31;100989.00;;;25.00
21336;BMP180;10826;52.536;13.432;2022-08-21T01:57:01;100992.00;;;24.90
21336;BMP180;10826;52.536;13.432;2022-08-21T01:59:28;100994.00;;;24.90
21336;BMP180;10826;52.536;13.432;2022-08-21T02:01:57;101015.00;;;24.90
21336;BMP180;10826;52.536;13.432;2022-08-21T02:04:24;101014.00;;;24.80
21336;BMP180;10826;52.536;13.432;2022-08-21T02:06:50;101000.00;;;24.90
21336;BMP180;10826;52.536;13.432;2022-08-21T02:09:18;100993.00;;;24.80
21336;BMP180;10826;52.536;13.432;2022-08-21T02:11:44;101003.00;;;24.70
21336;BMP180;10826;52.536;13.432;2022-08-21T02:14:13;100996.00;;;24.70
21336;BMP180;10826;52.536;13.432;2022-08-21T02:16:44;101002.00;;;24.70
21336;BMP180;10826;52.536;13.432;2022-08-21T02:19:13;101017.00;;;24.50
21336;BMP180;10826;52.536;13.432;2022-08-21T02:21:40;100998.00;;;24.60
21336;BMP180;10826;52.536;13.432;2022-08-21T02:24:08;101001.00;;;24.60
21336;BMP180;10826;52.536;13.432;2022-08-21T02:26:34;101014.00;;;24.60
21336;BMP180;10826;52.536;13.432;2022-08-21T02:29:01;101016.00;;;24.50
21336;BMP180;10826;52.536;13.432;2022-08-21T02:31:27;101034.00;;;24.30
21336;BMP180;10826;52.536;13.432;2022-08-21T02:33:53;101013.00;;;24.30
21336;BMP180;10826;52.536;13.432;2022-08-21T02:36:19;101025.00;;;24.40
21336;BMP180;10826;52.536;13.432;2022-08-21T02:38:45;101016.00;;;24.30
21336;BMP180;10826;52.536;13.432;2022-08-21T02:41:18;101019.00;;;24.30
21336;BMP180;10826;52.536;13.432;2022-08-21T02:43:45;101011.00;;;24.30
21336;BMP180;10826;52.536;13.432;2022-08-21T02:46:14;101001.00;;;24.20
21336;BMP180;10826;52.536;13.432;2022-08-21T02:48:41;101009.00;;;24.20
21336;BMP180;10826;52.536;13.432;2022-08-21T02:51:11;100999.00;;;24.20
21336;BMP180;10826;52.536;13.432;2022-08-21T02:53:38;101004.00;;;24.00
21336;BMP180;10826;52.536;13.432;2022-08-21T02:56:09;101002.00;;;24.20
21336;BMP180;10826;52.536;13.432;2022-08-21T02:58:41;101012.00;;;24.20
21336;BMP180;10826;52.536;13.432;2022-08-21T03:01:08;101010.00;;;24.20
21336;BMP180;10826;52.536;13.432;2022-08-21T03:03:37;101012.00;;;24.20
21336;BMP180;10826;52.536;13.432;2022-08-21T03:06:06;101010.00;;;24.20
21336;BMP180;10826;52.536;13.432;2022-08-21T03:08:35;101009.00;;;24.10
21336;BMP180;10826;52.536;13.432;2022-08-21T03:11:02;101013.00;;;24.00
21336;BMP180;10826;52.536;13.432;2022-08-21T03:13:28;100984.00;;;24.00
21336;BMP180;10826;52.536;13.432;2022-08-21T03:15:55;101018.00;;;24.00
21336;BMP180;10826;52.536;13.432;2022-08-21T03:18:22;101007.00;;;24.00
21336;BMP180;10826;52.536;13.432;2022-08-21T03:20:48;100996.00;;;23.90
21336;BMP180;10826;52.536;13.432;2022-08-21T03:23:16;100996.00;;;24.00
21336;BMP180;10826;52.536;13.432;2022-08-21T03:25:44;100926.00;;;23.90
21336;BMP180;10826;52.536;13.432;2022-08-21T03:28:19;100948.00;;;24.00
21336;BMP180;10826;52.536;13.432;2022-08-21T03:30:50;101017.00;;;24.00
21336;BMP180;10826;52.536;13.432;2022-08-21T03:33:17;101010.00;;;23.90
21336;BMP180;10826;52.536;13.432;2022-08-21T03:35:47;100997.00;;;24.00
21336;BMP180;10826;52.536;13.432;2022-08-21T03:38:17;101010.00;;;23.90
21336;BMP180;10826;52.536;13.432;2022-08-21T03:40:43;101012.00;;;23.90
21336;BMP180;10826;52.536;13.432;2022-08-21T03:43:10;101015.00;;;23.90
21336;BMP180;10826;52.536;13.432;2022-08-21T03:45:37;100994.00;;;23.90
21336;BMP180;10826;52.536;13.432;2022-08-21T03:48:06;101009.00;;;23.90
21336;BMP180;10826;52.536;13.432;2022-08-21T03:50:37;101006.00;;;23.90
21336;BMP180;10826;52.536;13.432;2022-08-21T03:53:03;100970.00;;;23.90
21336;BMP180;10826;52.536;13.432;2022-08-21T03:55:30;101000.00;;;24.00
21336;BMP180;10826;52.536;13.432;2022-08-21T03:57:56;100963.00;;;23.90
21336;BMP180;10826;52.536;13.432;2022-08-21T04:00:23;101012.00;;;23.80
21336;BMP180;10826;52.536;13.432;2022-08-21T04:02:50;101007.00;;;23.80
21336;BMP180;10826;52.536;13.432;2022-08-21T04:05:17;100980.00;;;23.80
21336;BMP180;10826;52.536;13.432;2022-08-21T04:08:02;101026.00;;;23.80
21336;BMP180;10826;52.536;13.432;2022-08-21T04:10:32;101010.00;;;23.70
21336;BMP180;10826;52.536;13.432;2022-08-21T04:12:58;100985.00;;;23.70
21336;BMP180;10826;52.536;13.432;2022-08-21T04:15:26;101028.00;;;23.70
21336;BMP180;10826;52.536;13.432;2022-08-21T04:17:53;101009.00;;;23.60
21336;BMP180;10826;52.536;13.432;2022-08-21T04:20:21;101026.00;;;23.70
21336;BMP180;10826;52.536;13.432;2022-08-21T04:22:48;101016.00;;;23.70
21336;BMP180;10826;52.536;13.432;2022-08-21T04:25:18;101014.00;;;23.70
21336;BMP180;10826;52.536;13.432;2022-08-21T04:27:44;101008.00;;;23.60
21336;BMP180;10826;52.536;13.432;2022-08-21T04:30:13;101031.00;;;23.60
21336;BMP180;10826;52.536;13.432;2022-08-21T04:32:47;101011.00;;;23.60
21336;BMP180;10826;52.536;13.432;2022-08-21T04:35:16;100981.00;;;23.60
21336;BMP180;10826;52.536;13.432;2022-08-21T04:37:42;101021.00;;;23.60
21336;BMP180;10826;52.536;13.432;2022-08-21T04:40:11;101018.00;;;23.70
21336;BMP180;10826;52.536;13.432;2022-08-21T04:42:45;101038.00;;;23.70
21336;BMP180;10826;52.536;13.432;2022-08-21T04:45:25;101028.00;;;23.60
21336;BMP180;10826;52.536;13.432;2022-08-21T04:47:57;101034.00;;;23.60
21336;BMP180;10826;52.536;13.432;2022-08-21T04:50:52;101031.00;;;23.60
21336;BMP180;10826;52.536;13.432;2022-08-21T04:56:10;101037.00;;;23.60
21336;BMP180;10826;52.536;13.432;2022-08-21T04:58:38;101009.00;;;23.60
21336;BMP180;10826;52.536;13.432;2022-08-21T05:01:11;101035.00;;;23.60
21336;BMP180;10826;52.536;13.432;2022-08-21T05:03:39;101031.00;;;23.60
21336;BMP180;10826;52.536;13.432;2022-08-21T05:06:09;101023.00;;;23.60
21336;BMP180;10826;52.536;13.432;2022-08-21T05:08:38;101031.00;;;23.70
21336;BMP180;10826;52.536;13.432;2022-08-21T05:11:06;101035.00;;;23.60
21336;BMP180;10826;52.536;13.432;2022-08-21T05:13:33;101036.00;;;23.80
21336;BMP180;10826;52.536;13.432;2022-08-21T05:15:59;101031.00;;;23.80
21336;BMP180;10826;52.536;13.432;2022-08-21T05:18:25;101035.00;;;23.90
21336;BMP180;10826;52.536;13.432;2022-08-21T05:20:51;101030.00;;;23.90
21336;BMP180;10826;52.536;13.432;2022-08-21T05:23:17;101034.00;;;23.90
21336;BMP180;10826;52.536;13.432;2022-08-21T05:25:43;101032.00;;;24.00
21336;BMP180;10826;52.536;13.432;2022-08-21T05:28:10;101046.00;;;23.90
21336;BMP180;10826;52.536;13.432;2022-08-21T05:30:37;101038.00;;;24.00
21336;BMP180;10826;52.536;13.432;2022-08-21T05:33:06;101046.00;;;24.00
21336;BMP180;10826;52.536;13.432;2022-08-21T05:35:32;101051.00;;;23.70
21336;BMP180;10826;52.536;13.432;2022-08-21T05:38:00;101051.00;;;24.00
21336;BMP180;10826;52.536;13.432;2022-08-21T05:40:26;101015.00;;;24.00
21336;BMP180;10826;52.536;13.432;2022-08-21T05:42:54;101050.00;;;24.00
21336;BMP180;10826;52.536;13.432;2022-08-21T05:45:26;101036.00;;;24.10
21336;BMP180;10826;52.536;13.432;2022-08-21T05:47:52;101033.00;;;24.20
21336;BMP180;10826;52.536;13.432;2022-08-21T05:50:18;101043.00;;;24.20
21336;BMP180;10826;52.536;13.432;2022-08-21T05:52:45;101052.00;;;24.30
21336;BMP180;10826;52.536;13.432;2022-08-21T05:55:11;101063.00;;;24.30
21336;BMP180;10826;52.536;13.432;2022-08-21T05:57:36;101061.00;;;24.30
21336;BMP180;10826;52.536;13.432;2022-08-21T06:00:08;101061.00;;;24.30
21336;BMP180;10826;52.536;13.432;2022-08-21T06:02:40;101059.00;;;24.30
21336;BMP180;10826;52.536;13.432;2022-08-21T06:05:07;101051.00;;;24.30
21336;BMP180;10826;52.536;13.432;2022-08-21T06:07:33;101067.00;;;24.30
21336;BMP180;10826;52.536;13.432;2022-08-21T06:09:59;101065.00;;;24.30
21336;BMP180;10826;52.536;13.432;2022-08-21T06:12:25;101075.00;;;24.30
21336;BMP180;10826;52.536;13.432;2022-08-21T06:14:52;101074.00;;;24.30
21336;BMP180;10826;52.536;13.432;2022-08-21T06:17:21;101065.00;;;24.30
21336;BMP180;10826;52.536;13.432;2022-08-21T06:19:52;101038.00;;;24.40
21336;BMP180;10826;52.536;13.432;2022-08-21T06:22:18;101067.00;;;24.40
21336;BMP180;10826;52.536;13.432;2022-08-21T06:24:44;101073.00;;;24.40
21336;BMP180;10826;52.536;13.432;2022-08-21T06:27:10;101054.00;;;24.40
21336;BMP180;10826;52.536;13.432;2022-08-21T06:29:39;101060.00;;;24.50
21336;BMP180;10826;52.536;13.432;2022-08-21T06:32:06;101067.00;;;24.50
21336;BMP180;10826;52.536;13.432;2022-08-21T06:34:38;101075.00;;;24.70
21336;BMP180;10826;52.536;13.432;2022-08-21T06:37:08;101041.00;;;24.80
21336;BMP180;10826;52.536;13.432;2022-08-21T06:39:35;101067.00;;;24.80
21336;BMP180;10826;52.536;13.432;2022-08-21T06:42:01;101080.00;;;24.90
21336;BMP180;10826;52.536;13.432;2022-08-21T06:44:29;101063.00;;;25.00
21336;BMP180;10826;52.536;13.432;2022-08-21T06:46:56;101065.00;;;25.10
21336;BMP180;10826;52.536;13.432;2022-08-21T06:49:22;101064.00;;;25.00
21336;BMP180;10826;52.536;13.432;2022-08-21T06:51:49;101058.00;;;25.20
21336;BMP180;10826;52.536;13.432;2022-08-21T06:54:15;101066.00;;;25.20
21336;BMP180;10826;52.536;13.432;2022-08-21T06:56:41;101056.00;;;25.30
21336;BMP180;10826;52.536;13.432;2022-08-21T06:59:07;101022.00;;;25.40
21336;BMP180;10826;52.536;13.432;2022-08-21T07:01:32;101048.00;;;25.40
21336;BMP180;10826;52.536;13.432;2022-08-21T07:03:58;100999.00;;;25.20
21336;BMP180;10826;52.536;13.432;2022-08-21T07:06:24;101062.00;;;25.60
21336;BMP180;10826;52.536;13.432;2022-08-21T07:08:51;101034.00;;;25.40
21336;BMP180;10826;52.536;13.432;2022-08-21T07:11:24;101068.00;;;25.80
21336;BMP180;10826;52.536;13.432;2022-08-21T07:13:51;101054.00;;;25.80
21336;BMP180;10826;52.536;13.432;2022-08-21T07:16:20;101056.00;;;25.90
21336;BMP180;10826;52.536;13.432;2022-08-21T07:18:47;101075.00;;;25.90
21336;BMP180;10826;52.536;13.432;2022-08-21T07:21:15;101067.00;;;26.00
21336;BMP180;10826;52.536;13.432;2022-08-21T07:23:45;101064.00;;;26.10
21336;BMP180;10826;52.536;13.432;2022-08-21T07:26:15;101052.00;;;26.10
21336;BMP180;10826;52.536;13.432;2022-08-21T07:28:42;101048.00;;;26.10
21336;BMP180;10826;52.536;13.432;2022-08-21T07:31:10;101052.00;;;26.10
21336;BMP180;10826;52.536;13.432;2022-08-21T07:33:39;101033.00;;;26.10
21336;BMP180;10826;52.536;13.432;2022-08-21T07:36:07;101057.00;;;26.20
21336;BMP180;10826;52.536;13.432;2022-08-21T07:38:35;101039.00;;;26.20
21336;BMP180;10826;52.536;13.432;2022-08-21T07:41:12;101035.00;;;26.30
21336;BMP180;10826;52.536;13.432;2022-08-21T07:43:39;101040.00;;;26.30
21336;BMP180;10826;52.536;13.432;2022-08-21T07:46:05;101034.00;;;26.40
21336;BMP180;10826;52.536;13.432;2022-08-21T07:48:31;101037.00;;;26.50
21336;BMP180;10826;52.536;13.432;2022-08-21T07:50:58;101034.00;;;26.40
21336;BMP180;10826;52.536;13.432;2022-08-21T07:53:26;101059.00;;;26.50
21336;BMP180;10826;52.536;13.432;2022-08-21T07:55:52;101058.00;;;26.50
21336;BMP180;10826;52.536;13.432;2022-08-21T07:58:18;101050.00;;;26.40
21336;BMP180;10826;52.536;13.432;2022-08-21T08:00:44;101049.00;;;26.40
21336;BMP180;10826;52.536;13.432;2022-08-21T08:03:10;101055.00;;;26.40
21336;BMP180;10826;52.536;13.432;2022-08-21T08:05:36;101063.00;;;26.20
21336;BMP180;10826;52.536;13.432;2022-08-21T08:08:03;100995.00;;;26.30
21336;BMP180;10826;52.536;13.432;2022-08-21T08:10:29;101050.00;;;26.30
21336;BMP180;10826;52.536;13.432;2022-08-21T08:12:55;101028.00;;;26.40
21336;BMP180;10826;52.536;13.432;2022-08-21T08:15:25;101054.00;;;26.40
21336;BMP180;10826;52.536;13.432;2022-08-21T08:17:52;101016.00;;;26.40
21336;BMP180;10826;52.536;13.432;2022-08-21T08:20:19;101042.00;;;26.50
21336;BMP180;10826;52.536;13.432;2022-08-21T08:22:46;101056.00;;;26.60
21336;BMP180;10826;52.536;13.432;2022-08-21T08:25:14;101043.00;;;26.70
21336;BMP180;10826;52.536;13.432;2022-08-21T08:27:41;101053.00;;;26.70
21336;BMP180;10826;52.536;13.432;2022-08-21T08:30:12;101042.00;;;26.80
21336;BMP180;10826;52.536;13.432;2022-08-21T08:32:38;101047.00;;;26.70
21336;BMP180;10826;52.536;13.432;2022-08-21T08:35:07;101050.00;;;26.70
21336;BMP180;10826;52.536;13.432;2022-08-21T08:37:34;101054.00;;;26.70
21336;BMP180;10826;52.536;13.432;2022-08-21T08:40:05;101068.00;;;26.80
21336;BMP180;10826;52.536;13.432;2022-08-21T08:42:36;101062.00;;;26.90
21336;BMP180;10826;52.536;13.432;2022-08-21T08:45:18;101049.00;;;26.90
21336;BMP180;10826;52.536;13.432;2022-08-21T08:47:55;101070.00;;;27.00
21336;BMP180;10826;52.536;13.432;2022-08-21T08:50:52;101048.00;;;27.00
21336;BMP180;10826;52.536;13.432;2022-08-21T08:53:51;101061.00;;;27.10
21336;BMP180;10826;52.536;13.432;2022-08-21T08:56:26;101031.00;;;27.10
21336;BMP180;10826;52.536;13.432;2022-08-21T08:59:02;101050.00;;;27.10
21336;BMP180;10826;52.536;13.432;2022-08-21T09:01:28;101051.00;;;27.20
21336;BMP180;10826;52.536;13.432;2022-08-21T09:03:54;101030.00;;;27.20
21336;BMP180;10826;52.536;13.432;2022-08-21T09:06:40;101047.00;;;27.30
21336;BMP180;10826;52.536;13.432;2022-08-21T09:27:34;101036.00;;;27.70
21336;BMP180;10826;52.536;13.432;2022-08-21T09:30:02;101024.00;;;27.70
21336;BMP180;10826;52.536;13.432;2022-08-21T09:32:35;101047.00;;;28.00
21336;BMP180;10826;52.536;13.432;2022-08-21T09:35:15;101048.00;;;28.10
21336;BMP180;10826;52.536;13.432;2022-08-21T09:38:04;101053.00;;;28.30
21336;BMP180;10826;52.536;13.432;2022-08-21T09:40:45;101055.00;;;28.30
21336;BMP180;10826;52.536;13.432;2022-08-21T09:45:40;101060.00;;;28.30
21336;BMP180;10826;52.536;13.432;2022-08-21T09:48:20;100999.00;;;28.40
21336;BMP180;10826;52.536;13.432;2022-08-21T09:50:48;101041.00;;;28.40
21336;BMP180;10826;52.536;13.432;2022-08-21T09:53:27;101047.00;;;28.50
21336;BMP180;10826;52.536;13.432;2022-08-21T09:56:00;101052.00;;;28.70
21336;BMP180;10826;52.536;13.432;2022-08-21T09:58:50;101053.00;;;28.80
21336;BMP180;10826;52.536;13.432;2022-08-21T10:01:21;101051.00;;;28.90
21336;BMP180;10826;52.536;13.432;2022-08-21T10:04:04;101063.00;;;29.00
21336;BMP180;10826;52.536;13.432;2022-08-21T10:06:32;101058.00;;;28.60
21336;BMP180;10826;52.536;13.432;2022-08-21T10:09:06;101054.00;;;29.00
21336;BMP180;10826;52.536;13.432;2022-08-21T10:11:33;101055.00;;;29.00
21336;BMP180;10826;52.536;13.432;2022-08-21T10:14:33;101045.00;;;29.10
21336;BMP180;10826;52.536;13.432;2022-08-21T10:18:21;101045.00;;;29.10
21336;BMP180;10826;52.536;13.432;2022-08-21T10:27:16;101056.00;;;29.20
21336;BMP180;10826;52.536;13.432;2022-08-21T10:30:09;101046.00;;;29.30
21336;BMP180;10826;52.536;13.432;2022-08-21T10:35:42;101060.00;;;29.40
21336;BMP180;10826;52.536;13.432;2022-08-21T10:47:30;101057.00;;;29.50
21336;BMP180;10826;52.536;13.432;2022-08-21T10:50:28;101064.00;;;29.50
21336;BMP180;10826;52.536;13.432;2022-08-21T10:55:51;101048.00;;;29.40
21336;BMP180;10826;52.536;13.432;2022-08-21T10:58:49;101045.00;;;29.50
21336;BMP180;10826;52.536;13.432;2022-08-21T11:01:45;101060.00;;;29.50
21336;BMP180;10826;52.536;13.432;2022-08-21T11:04:20;101047.00;;;29.40
21336;BMP180;10826;52.536;13.432;2022-08-21T11:07:02;101049.00;;;29.60
21336;BMP180;10826;52.536;13.432;2022-08-21T11:09:30;101063.00;;;29.50
21336;BMP180;10826;52.536;13.432;2022-08-21T11:12:06;101068.00;;;29.50
21336;BMP180;10826;52.536;13.432;2022-08-21T11:14:53;101062.00;;;29.60
21336;BMP180;10826;52.536;13.432;2022-08-21T11:17:32;101040.00;;;29.50
21336;BMP180;10826;52.536;13.432;2022-08-21T11:20:29;101059.00;;;29.70
21336;BMP180;10826;52.536;13.432;2022-08-21T11:23:26;101059.00;;;29.80
21336;BMP180;10826;52.536;13.432;2022-08-21T11:26:01;101032.00;;;29.80
21336;BMP180;10826;52.536;13.432;2022-08-21T11:28:51;101043.00;;;29.80
21336;BMP180;10826;52.536;13.432;2022-08-21T11:31:40;101049.00;;;29.80
21336;BMP180;10826;52.536;13.432;2022-08-21T11:34:49;101049.00;;;29.90
21336;BMP180;10826;52.536;13.432;2022-08-21T11:41:07;101057.00;;;30.00
21336;BMP180;10826;52.536;13.432;2022-08-21T11:43:53;101048.00;;;29.90
21336;BMP180;10826;52.536;13.432;2022-08-21T11:46:57;101048.00;;;30.00
21336;BMP180;10826;52.536;13.432;2022-08-21T11:52:41;101026.00;;;29.80
21336;BMP180;10826;52.536;13.432;2022-08-21T11:58:01;101043.00;;;29.90
21336;BMP180;10826;52.536;13.432;2022-08-21T12:00:40;101037.00;;;29.90
21336;BMP180;10826;52.536;13.432;2022-08-21T12:03:16;101046.00;;;29.90
21336;BMP180;10826;52.536;13.432;2022-08-21T12:05:52;101027.00;;;29.90
21336;BMP180;10826;52.536;13.432;2022-08-21T12:08:44;101019.00;;;29.90
21336;BMP180;10826;52.536;13.432;2022-08-21T12:11:24;101021.00;;;29.90
21336;BMP180;10826;52.536;13.432;2022-08-21T12:16:46;101024.00;;;29.90
21336;BMP180;10826;52.536;13.432;2022-08-21T12:19:29;101033.00;;;29.80
21336;BMP180;10826;52.536;13.432;2022-08-21T12:24:49;101009.00;;;29.80
21336;BMP180;10826;52.536;13.432;2022-08-21T12:27:49;101014.00;;;29.80
21336;BMP180;10826;52.536;13.432;2022-08-21T12:30:38;101021.00;;;29.80
21336;BMP180;10826;52.536;13.432;2022-08-21T12:33:33;101020.00;;;29.80
21336;BMP180;10826;52.536;13.432;2022-08-21T12:36:15;101030.00;;;30.00
21336;BMP180;10826;52.536;13.432;2022-08-21T12:39:00;101036.00;;;30.00
21336;BMP180;10826;52.536;13.432;2022-08-21T12:42:22;101027.00;;;30.00
21336;BMP180;10826;52.536;13.432;2022-08-21T12:44:59;100998.00;;;30.10
21336;BMP180;10826;52.536;13.432;2022-08-21T12:47:47;101006.00;;;30.20
21336;BMP180;10826;52.536;13.432;2022-08-21T12:50:31;101021.00;;;30.20
21336;BMP180;10826;52.536;13.432;2022-08-21T12:53:39;101030.00;;;30.10
21336;BMP180;10826;52.536;13.432;2022-08-21T12:56:15;101014.00;;;29.90
21336;BMP180;10826;52.536;13.432;2022-08-21T12:58:51;101006.00;;;29.80
21336;BMP180;10826;52.536;13.432;2022-08-21T13:01:31;101014.00;;;29.70
21336;BMP180;10826;52.536;13.432;2022-08-21T13:04:06;101023.00;;;29.70
21336;BMP180;10826;52.536;13.432;2022-08-21T13:06:41;101024.00;;;29.60
21336;BMP180;10826;52.536;13.432;2022-08-21T13:09:14;100994.00;;;29.60
21336;BMP180;10826;52.536;13.432;2022-08-21T13:11:47;101010.00;;;29.60
21336;BMP180;10826;52.536;13.432;2022-08-21T13:14:35;101018.00;;;29.60
21336;BMP180;10826;52.536;13.432;2022-08-21T13:17:05;101014.00;;;29.60
21336;BMP180;10826;52.536;13.432;2022-08-21T13:19:33;100981.00;;;29.50
21336;BMP180;10826;52.536;13.432;2022-08-21T13:22:27;101021.00;;;29.40
21336;BMP180;10826;52.536;13.432;2022-08-21T13:24:57;101021.00;;;29.30
21336;BMP180;10826;52.536;13.432;2022-08-21T13:27:29;101036.00;;;29.30
21336;BMP180;10826;52.536;13.432;2022-08-21T13:30:09;101015.00;;;29.20
21336;BMP180;10826;52.536;13.432;2022-08-21T13:32:43;101014.00;;;29.10
21336;BMP180;10826;52.536;13.432;2022-08-21T13:35:19;101017.00;;;29.10
21336;BMP180;10826;52.536;13.432;2022-08-21T13:37:48;101021.00;;;29.10
21336;BMP180;10826;52.536;13.432;2022-08-21T13:40:48;101019.00;;;29.10
21336;BMP180;10826;52.536;13.432;2022-08-21T13:43:19;101014.00;;;29.10
21336;BMP180;10826;52.536;13.432;2022-08-21T13:45:53;101012.00;;;29.00
21336;BMP180;10826;52.536;13.432;2022-08-21T13:48:22;101007.00;;;29.00
21336;BMP180;10826;52.536;13.432;2022-08-21T13:50:49;100995.00;;;29.00
21336;BMP180;10826;52.536;13.432;2022-08-21T13:53:46;101041.00;;;29.10
21336;BMP180;10826;52.536;13.432;2022-08-21T13:56:30;101008.00;;;29.10
21336;BMP180;10826;52.536;13.432;2022-08-21T13:58:59;100975.00;;;29.10
21336;BMP180;10826;52.536;13.432;2022-08-21T14:01:29;100983.00;;;29.10
21336;BMP180;10826;52.536;13.432;2022-08-21T14:04:17;101019.00;;;29.20
21336;BMP180;10826;52.536;13.432;2022-08-21T14:06:45;101026.00;;;29.20
21336;BMP180;10826;52.536;13.432;2022-08-21T14:09:26;101021.00;;;29.30
21336;BMP180;10826;52.536;13.432;2022-08-21T14:11:55;101005.00;;;29.40
21336;BMP180;10826;52.536;13.432;2022-08-21T14:14:33;101018.00;;;29.50
21336;BMP180;10826;52.536;13.432;2022-08-21T14:17:05;101012.00;;;29.60
21336;BMP180;10826;52.536;13.432;2022-08-21T14:19:44;101010.00;;;29.60
21336;BMP180;10826;52.536;13.432;2022-08-21T14:22:42;101020.00;;;29.60
21336;BMP180;10826;52.536;13.432;2022-08-21T14:25:35;101006.00;;;29.30
21336;BMP180;10826;52.536;13.432;2022-08-21T14:28:26;100955.00;;;29.70
21336;BMP180;10826;52.536;13.432;2022-08-21T14:30:52;101007.00;;;29.80
21336;BMP180;10826;52.536;13.432;2022-08-21T14:33:31;100979.00;;;29.80
21336;BMP180;10826;52.536;13.432;2022-08-21T14:35:58;101008.00;;;29.80
21336;BMP180;10826;52.536;13.432;2022-08-21T14:38:27;101000.00;;;29.80
21336;BMP180;10826;52.536;13.432;2022-08-21T14:41:12;101001.00;;;29.80
21336;BMP180;10826;52.536;13.432;2022-08-21T14:43:43;100995.00;;;29.60
21336;BMP180;10826;52.536;13.432;2022-08-21T14:46:09;100959.00;;;29.50
21336;BMP180;10826;52.536;13.432;2022-08-21T14:48:35;100971.00;;;29.40
21336;BMP180;10826;52.536;13.432;2022-08-21T14:51:01;100936.00;;;29.20
21336;BMP180;10826;52.536;13.432;2022-08-21T14:53:27;101014.00;;;29.20
21336;BMP180;10826;52.536;13.432;2022-08-21T14:55:53;100930.00;;;29.10
21336;BMP180;10826;52.536;13.432;2022-08-21T14:58:38;101033.00;;;29.10
21336;BMP180;10826;52.536;13.432;2022-08-21T15:01:08;101009.00;;;29.00
21336;BMP180;10826;52.536;13.432;2022-08-21T15:03:36;101004.00;;;29.00
21336;BMP180;10826;52.536;13.432;2022-08-21T15:06:04;101020.00;;;29.00
21336;BMP180;10826;52.536;13.432;2022-08-21T15:08:31;101014.00;;;29.00
21336;BMP180;10826;52.536;13.432;2022-08-21T15:10:59;101019.00;;;29.00
21336;BMP180;10826;52.536;13.432;2022-08-21T15:13:26;101025.00;;;29.00